createdAt,value
2019-03-28T00:02:22.771Z,83.64
2019-03-28T00:04:53.840Z,83.29
2019-03-28T00:07:24.341Z,84.00
2019-03-28T00:09:57.537Z,83.37
2019-03-28T00:12:27.360Z,83.63
2019-03-28T00:14:59.398Z,84.58
2019-03-28T00:17:29.341Z,84.39
2019-03-28T00:20:01.495Z,84.28
2019-03-28T00:22:42.178Z,84.58
2019-03-28T00:25:13.806Z,83.49
2019-03-28T00:27:44.201Z,84.08
2019-03-28T00:30:15.417Z,84.74
2019-03-28T00:32:47.870Z,84.80
2019-03-28T00:35:19.168Z,84.22
2019-03-28T00:38:00.092Z,83.91
2019-03-28T00:40:30.419Z,84.55
2019-03-28T00:43:01.101Z,85.16
2019-03-28T00:45:32.497Z,85.50
2019-03-28T00:48:02.374Z,85.60
2019-03-28T00:50:34.774Z,85.54
2019-03-28T00:53:04.555Z,85.29
2019-03-28T00:55:34.567Z,84.57
2019-03-28T00:58:05.645Z,84.50
2019-03-28T01:00:35.286Z,84.24
2019-03-28T01:03:07.030Z,83.74
2019-03-28T01:05:38.099Z,84.47
2019-03-28T01:08:07.706Z,84.09
2019-03-28T01:10:37.397Z,84.57
2019-03-28T01:13:07.266Z,84.30
2019-03-28T01:15:36.915Z,83.58
2019-03-28T01:18:07.583Z,84.88
2019-03-28T01:20:37.265Z,87.23
2019-03-28T01:23:06.842Z,86.58
2019-03-28T01:25:36.470Z,86.23
2019-03-28T01:28:10.349Z,86.36
2019-03-28T01:30:40.021Z,85.03
2019-03-28T01:33:09.619Z,84.93
2019-03-28T01:35:40.671Z,85.49
2019-03-28T01:38:10.351Z,85.70
2019-03-28T01:40:42.356Z,85.55
2019-03-28T01:43:12.134Z,85.80
2019-03-28T01:45:46.031Z,86.12
2019-03-28T01:48:17.084Z,86.45
2019-03-28T01:50:47.297Z,86.15
2019-03-28T01:53:16.868Z,88.11
2019-03-28T01:55:47.515Z,89.30
2019-03-28T01:58:19.193Z,89.14
2019-03-28T02:00:51.176Z,88.33
2019-03-28T02:03:20.895Z,86.82
2019-03-28T02:05:53.110Z,86.44
2019-03-28T02:08:24.884Z,85.73
2019-03-28T02:10:53.992Z,87.06
2019-03-28T02:13:23.684Z,87.02
2019-03-28T02:15:55.329Z,85.98
2019-03-28T02:18:29.223Z,85.97
2019-03-28T02:20:58.834Z,86.08
2019-03-28T02:23:29.982Z,84.96
2019-03-28T02:25:59.553Z,85.04
2019-03-28T02:28:29.305Z,85.43
2019-03-28T02:30:58.919Z,85.32
2019-03-28T02:33:30.814Z,84.41
2019-03-28T02:36:01.810Z,85.45
2019-03-28T02:38:32.337Z,85.17
2019-03-28T02:41:02.041Z,85.37
2019-03-28T02:43:31.672Z,85.06
2019-03-28T02:46:02.690Z,85.50
2019-03-28T02:48:32.534Z,85.65
2019-03-28T02:51:02.287Z,85.03
2019-03-28T02:53:31.999Z,85.17
2019-03-28T02:56:01.668Z,85.78
2019-03-28T02:58:31.258Z,86.21
2019-03-28T03:01:00.861Z,86.33
2019-03-28T03:03:30.456Z,86.21
2019-03-28T03:06:00.102Z,86.34
2019-03-28T03:08:29.693Z,86.23
2019-03-28T03:10:59.320Z,86.13
2019-03-28T03:13:31.236Z,85.58
2019-03-28T03:16:02.060Z,85.01
2019-03-28T03:18:31.643Z,84.94
2019-03-28T03:21:01.347Z,84.64
2019-03-28T03:23:30.971Z,84.05
2019-03-28T03:26:01.130Z,83.71
2019-03-28T03:28:30.695Z,85.17
2019-03-28T03:31:00.277Z,85.24
2019-03-28T03:33:30.113Z,85.56
2019-03-28T03:35:59.798Z,85.21
2019-03-28T03:38:29.383Z,85.70
2019-03-28T03:40:59.031Z,86.13
2019-03-28T03:43:30.895Z,86.42
2019-03-28T03:46:01.979Z,86.40
2019-03-28T03:48:31.602Z,86.86
2019-03-28T03:51:01.234Z,85.51
2019-03-28T03:53:30.839Z,85.32
2019-03-28T03:56:00.484Z,84.76
2019-03-28T03:58:30.093Z,84.44
2019-03-28T04:00:59.701Z,84.97
2019-03-28T04:03:29.655Z,84.13
2019-03-28T04:05:59.345Z,84.98
2019-03-28T04:08:29.364Z,85.88
2019-03-28T04:10:59.010Z,86.25
2019-03-28T04:13:29.659Z,88.06
2019-03-28T04:15:59.318Z,87.59
2019-03-28T04:18:28.937Z,87.22
2019-03-28T04:20:58.532Z,86.54
2019-03-28T04:23:28.380Z,85.41
2019-03-28T04:25:57.950Z,85.14
2019-03-28T04:28:32.149Z,84.92
2019-03-28T04:30:58.920Z,84.60
2019-03-28T04:33:28.832Z,84.54
2019-03-28T04:36:00.154Z,84.91
2019-03-28T04:38:29.772Z,84.82
2019-03-28T04:41:00.331Z,84.71
2019-03-28T04:43:30.040Z,85.30
2019-03-28T04:46:01.246Z,85.96
2019-03-28T04:48:30.909Z,86.21
2019-03-28T04:51:01.337Z,86.87
2019-03-28T04:53:30.928Z,86.88
2019-03-28T04:56:02.139Z,87.27
2019-03-28T04:58:43.756Z,87.47
2019-03-28T05:01:03.865Z,86.96
2019-03-28T05:03:33.523Z,86.70
2019-03-28T05:06:04.231Z,86.19
2019-03-28T05:08:33.860Z,86.02
2019-03-28T05:11:03.501Z,84.93
2019-03-28T05:13:33.171Z,85.12
2019-03-28T05:16:02.760Z,84.75
2019-03-28T05:18:32.422Z,86.87
2019-03-28T05:21:02.085Z,86.51
2019-03-28T05:23:33.748Z,86.40
2019-03-28T05:26:03.374Z,85.99
2019-03-28T05:28:33.013Z,85.56
2019-03-28T05:31:02.684Z,84.58
2019-03-28T05:33:32.322Z,87.81
2019-03-28T05:36:04.451Z,87.88
2019-03-28T05:38:33.968Z,88.10
2019-03-28T05:41:07.403Z,88.32
2019-03-28T05:43:37.177Z,87.93
2019-03-28T05:46:12.070Z,87.06
2019-03-28T05:48:41.730Z,86.54
2019-03-28T05:51:11.951Z,85.62
2019-03-28T05:53:43.966Z,85.29
2019-03-28T05:56:12.905Z,84.98
2019-03-28T05:58:42.541Z,83.93
2019-03-28T06:01:12.190Z,83.79
2019-03-28T06:03:42.467Z,83.65
2019-03-28T06:06:12.275Z,83.68
2019-03-28T06:08:41.890Z,83.32
2019-03-28T06:11:11.449Z,83.19
2019-03-28T06:13:41.099Z,83.36
2019-03-28T06:16:10.730Z,82.27
2019-03-28T06:18:40.336Z,82.53
2019-03-28T06:21:09.907Z,85.49
2019-03-28T06:23:39.638Z,85.29
2019-03-28T06:26:12.736Z,85.65
2019-03-28T06:28:44.014Z,86.25
2019-03-28T06:31:13.655Z,88.26
2019-03-28T06:33:44.850Z,88.12
2019-03-28T06:36:14.590Z,89.11
2019-03-28T06:38:44.347Z,89.38
2019-03-28T06:41:14.034Z,88.85
2019-03-28T06:43:44.912Z,86.19
2019-03-28T06:46:14.606Z,85.39
2019-03-28T06:48:44.257Z,86.68
2019-03-28T06:51:13.955Z,84.02
2019-03-28T06:53:43.674Z,83.44
2019-03-28T06:56:13.266Z,83.23
2019-03-28T06:58:42.891Z,85.15
2019-03-28T07:01:12.499Z,81.71
2019-03-28T07:03:42.240Z,81.33
2019-03-28T07:06:14.581Z,80.30
2019-03-28T07:08:44.247Z,80.79
2019-03-28T07:11:13.838Z,78.88
2019-03-28T07:13:43.435Z,80.57
2019-03-28T07:16:13.039Z,79.19
2019-03-28T07:18:42.696Z,77.25
2019-03-28T07:21:12.364Z,77.17
2019-03-28T07:26:16.732Z,71.43
2019-03-28T07:28:48.641Z,68.22
2019-03-28T07:31:18.531Z,67.09
2019-03-28T07:33:49.389Z,64.76
2019-03-28T07:36:18.904Z,64.13
2019-03-28T07:38:48.804Z,61.86
2019-03-28T07:41:20.221Z,64.10
2019-03-28T07:43:49.852Z,62.99
2019-03-28T07:46:19.468Z,61.09
2019-03-28T07:48:50.072Z,59.67
2019-03-28T07:51:20.761Z,62.95
2019-03-28T07:53:51.803Z,58.82
2019-03-28T07:56:21.710Z,56.64
2019-03-28T07:58:51.356Z,58.23
2019-03-28T08:01:20.995Z,56.60
2019-03-28T08:03:51.888Z,54.52
2019-03-28T08:06:21.496Z,55.32
2019-03-28T08:08:54.485Z,54.56
2019-03-28T08:11:24.318Z,54.27
2019-03-28T08:13:55.913Z,54.14
2019-03-28T08:16:28.699Z,54.62
2019-03-28T08:18:58.008Z,51.95
2019-03-28T08:21:28.532Z,51.96
2019-03-28T08:23:59.487Z,51.25
2019-03-28T08:26:30.416Z,53.75
2019-03-28T08:29:02.678Z,53.77
2019-03-28T08:31:32.310Z,49.69
2019-03-28T08:34:22.683Z,52.87
2019-03-28T08:36:52.393Z,50.23
2019-03-28T08:39:23.218Z,49.92
2019-03-28T08:41:53.132Z,48.84
2019-03-28T08:44:24.793Z,49.19
2019-03-28T08:46:55.025Z,53.60
2019-03-28T08:49:25.019Z,54.29
2019-03-28T08:51:54.874Z,53.26
2019-03-28T08:54:31.242Z,52.55
2019-03-28T08:57:01.265Z,54.86
2019-03-28T08:59:36.821Z,54.66
2019-03-28T09:02:06.568Z,49.62
2019-03-28T09:04:37.842Z,48.23
2019-03-28T09:07:08.398Z,50.67
2019-03-28T09:09:38.015Z,54.07
2019-03-28T09:12:08.474Z,54.12
2019-03-28T09:14:41.800Z,51.49
2019-03-28T09:17:11.440Z,51.67
2019-03-28T09:19:41.220Z,53.61
2019-03-28T09:22:10.792Z,49.75
2019-03-28T09:24:41.376Z,49.14
2019-03-28T09:27:10.999Z,47.94
2019-03-28T09:29:40.580Z,47.17
2019-03-28T09:32:12.166Z,46.71
2019-03-28T09:34:42.792Z,49.29
2019-03-28T09:37:12.376Z,49.51
2019-03-28T09:39:42.141Z,46.30
2019-03-28T09:42:11.732Z,46.89
2019-03-28T09:44:41.354Z,45.24
2019-03-28T09:47:11.006Z,45.16
2019-03-28T09:49:40.689Z,44.48
2019-03-28T09:52:12.023Z,46.71
2019-03-28T09:54:43.220Z,44.80
2019-03-28T09:57:12.800Z,43.06
2019-03-28T09:59:42.416Z,42.63
2019-03-28T10:02:13.529Z,41.12
2019-03-28T10:04:44.462Z,41.04
2019-03-28T10:07:14.072Z,41.53
2019-03-28T10:09:43.851Z,43.35
2019-03-28T10:12:13.425Z,42.59
2019-03-28T10:14:43.071Z,41.21
2019-03-28T10:17:12.708Z,41.94
2019-03-28T10:19:42.389Z,40.74
2019-03-28T10:22:14.422Z,40.24
2019-03-28T10:24:45.182Z,41.91
2019-03-28T10:27:14.742Z,41.77
2019-03-28T10:29:44.414Z,42.72
2019-03-28T10:32:13.938Z,42.96
2019-03-28T10:34:43.575Z,43.57
2019-03-28T10:37:13.190Z,39.69
2019-03-28T10:39:42.863Z,40.47
2019-03-28T10:42:12.455Z,39.39
2019-03-28T10:44:43.205Z,39.25
2019-03-28T10:47:12.860Z,40.02
2019-03-28T10:49:42.534Z,40.37
2019-03-28T10:52:12.211Z,36.91
2019-03-28T10:54:41.880Z,36.52
2019-03-28T10:57:15.475Z,35.86
2019-03-28T10:59:42.777Z,37.10
2019-03-28T11:02:12.661Z,38.10
2019-03-28T11:04:43.396Z,40.82
2019-03-28T11:07:12.986Z,40.68
2019-03-28T11:09:42.612Z,39.20
2019-03-28T11:12:12.242Z,39.42
2019-03-28T11:14:41.866Z,37.21
2019-03-28T11:17:11.460Z,38.92
2019-03-28T11:19:41.033Z,39.11
2019-03-28T11:22:10.610Z,40.55
2019-03-28T11:24:42.028Z,38.42
2019-03-28T11:27:11.652Z,41.95
2019-03-28T11:29:43.083Z,43.01
2019-03-28T11:32:12.729Z,42.06
2019-03-28T11:34:43.615Z,42.02
2019-03-28T11:37:25.273Z,42.29
2019-03-28T11:39:44.543Z,41.90
2019-03-28T11:42:15.264Z,40.47
2019-03-28T11:44:46.161Z,38.94
2019-03-28T11:47:15.792Z,39.06
2019-03-28T11:49:45.392Z,38.89
2019-03-28T11:52:15.003Z,39.01
2019-03-28T11:54:44.627Z,40.14
2019-03-28T11:57:15.766Z,41.67
2019-03-28T11:59:45.830Z,39.61
2019-03-28T12:02:20.114Z,39.59
2019-03-28T12:04:48.399Z,39.17
2019-03-28T12:07:17.970Z,37.12
2019-03-28T12:09:49.040Z,38.97
2019-03-28T12:12:18.660Z,38.85
2019-03-28T12:14:49.580Z,40.84
2019-03-28T12:17:19.242Z,40.92
2019-03-28T12:19:49.396Z,40.12
2019-03-28T12:22:21.343Z,39.57
2019-03-28T12:24:52.025Z,41.95
2019-03-28T12:27:21.637Z,45.39
2019-03-28T12:29:51.332Z,47.56
2019-03-28T12:32:20.911Z,46.19
2019-03-28T12:34:51.769Z,46.44
2019-03-28T12:37:21.433Z,44.33
2019-03-28T12:39:51.070Z,43.79
2019-03-28T12:42:20.625Z,41.49
2019-03-28T12:44:56.977Z,40.64
2019-03-28T12:47:21.650Z,43.05
2019-03-28T12:49:51.353Z,43.19
2019-03-28T12:52:23.303Z,44.43
2019-03-28T12:54:54.758Z,42.70
2019-03-28T12:57:24.502Z,43.82
2019-03-28T12:59:54.112Z,42.87
2019-03-28T13:02:31.462Z,44.25
2019-03-28T13:04:59.013Z,46.62
2019-03-28T13:07:31.647Z,46.84
2019-03-28T13:10:02.117Z,45.53
2019-03-28T13:12:32.022Z,44.07
2019-03-28T13:15:04.779Z,43.51
2019-03-28T13:17:34.440Z,41.73
2019-03-28T13:20:04.581Z,41.58
2019-03-28T13:22:34.168Z,41.73
2019-03-28T13:25:04.827Z,42.93
2019-03-28T13:27:34.938Z,42.93
2019-03-28T13:30:06.100Z,43.09
2019-03-28T13:32:41.789Z,44.74
2019-03-28T13:35:10.932Z,43.16
2019-03-28T13:37:40.485Z,43.59
2019-03-28T13:40:12.760Z,43.04
2019-03-28T13:42:42.350Z,41.61
2019-03-28T13:45:12.056Z,41.70
2019-03-28T13:47:44.023Z,40.69
2019-03-28T13:50:13.639Z,43.52
2019-03-28T13:52:43.302Z,45.49
2019-03-28T13:55:12.901Z,44.54
2019-03-28T13:57:43.570Z,43.91
2019-03-28T14:00:13.212Z,46.00
2019-03-28T14:02:54.846Z,46.48
2019-03-28T14:05:15.929Z,46.06
2019-03-28T14:07:45.535Z,44.99
2019-03-28T14:10:15.167Z,46.17
2019-03-28T14:12:44.776Z,46.97
2019-03-28T14:15:14.360Z,46.75
2019-03-28T14:17:43.940Z,46.79
2019-03-28T14:20:13.592Z,45.54
2019-03-28T14:22:43.178Z,45.29
2019-03-28T14:25:12.807Z,47.75
2019-03-28T14:27:42.477Z,48.50
2019-03-28T14:30:12.123Z,47.24
2019-03-28T14:32:52.421Z,47.37
2019-03-28T14:35:14.407Z,46.75
2019-03-28T14:37:44.005Z,45.77
2019-03-28T14:40:13.631Z,45.78
2019-03-28T14:42:43.255Z,47.83
2019-03-28T14:45:12.942Z,47.65
2019-03-28T14:47:43.843Z,45.76
2019-03-28T14:50:18.804Z,46.47
2019-03-28T14:52:49.679Z,46.40
2019-03-28T14:55:19.428Z,47.84
2019-03-28T14:57:49.057Z,47.98
2019-03-28T15:00:34.985Z,48.18
2019-03-28T15:03:09.221Z,47.29
2019-03-28T15:05:40.099Z,48.54
2019-03-28T15:08:14.072Z,48.37
2019-03-28T15:10:43.791Z,45.65
2019-03-28T15:13:13.375Z,46.13
2019-03-28T15:15:43.024Z,46.91
2019-03-28T15:18:12.619Z,47.37
2019-03-28T15:20:42.228Z,46.41
2019-03-28T15:23:11.888Z,46.90
2019-03-28T15:25:41.613Z,47.06
2019-03-28T15:28:11.235Z,46.00
2019-03-28T15:30:40.890Z,47.45
2019-03-28T15:33:10.623Z,47.70
2019-03-28T15:35:40.179Z,48.87
2019-03-28T15:38:09.885Z,48.41
2019-03-28T15:40:39.533Z,47.30
2019-03-28T15:43:11.339Z,47.83
2019-03-28T15:45:42.402Z,47.59
2019-03-28T15:48:12.422Z,48.23
2019-03-28T15:50:43.426Z,48.48
2019-03-28T15:53:15.134Z,49.10
2019-03-28T15:55:48.631Z,48.67
2019-03-28T15:58:23.563Z,49.00
2019-03-28T16:00:50.303Z,48.62
2019-03-28T16:03:20.101Z,48.62
2019-03-28T16:05:58.157Z,49.56
2019-03-28T16:08:22.408Z,50.06
2019-03-28T16:10:52.176Z,48.94
2019-03-28T16:13:22.796Z,50.21
2019-03-28T16:15:53.011Z,49.34
2019-03-28T16:18:22.770Z,49.77
2019-03-28T16:20:53.565Z,49.77
2019-03-28T16:23:23.108Z,50.59
2019-03-28T16:25:52.835Z,49.67
2019-03-28T16:28:22.454Z,50.51
2019-03-28T16:30:52.085Z,50.41
2019-03-28T16:33:21.694Z,49.29
2019-03-28T16:35:51.532Z,49.84
2019-03-28T16:38:21.818Z,49.80
2019-03-28T16:40:51.697Z,50.26
2019-03-28T16:43:21.339Z,50.76
2019-03-28T16:45:52.037Z,51.03
2019-03-28T16:48:21.764Z,51.96
2019-03-28T16:50:51.531Z,51.89
2019-03-28T16:53:21.133Z,52.52
2019-03-28T16:55:50.909Z,51.85
2019-03-28T16:58:20.727Z,52.62
2019-03-28T17:00:50.564Z,52.90
2019-03-28T17:03:21.475Z,52.74
2019-03-28T17:05:52.357Z,53.71
2019-03-28T17:08:22.037Z,53.78
2019-03-28T17:10:52.835Z,54.19
2019-03-28T17:13:23.454Z,54.38
2019-03-28T17:15:54.526Z,54.85
2019-03-28T17:18:24.286Z,54.42
2019-03-28T17:20:55.145Z,54.42
2019-03-28T17:23:25.046Z,54.47
2019-03-28T17:25:56.021Z,54.94
2019-03-28T17:28:25.658Z,54.96
2019-03-28T17:30:55.304Z,55.30
2019-03-28T17:33:24.887Z,55.20
2019-03-28T17:35:55.469Z,54.33
2019-03-28T17:38:25.212Z,54.60
2019-03-28T17:40:55.208Z,55.42
2019-03-28T17:43:24.917Z,55.94
2019-03-28T17:45:54.482Z,56.44
2019-03-28T17:48:24.422Z,55.49
2019-03-28T17:50:56.314Z,55.55
2019-03-28T17:53:26.017Z,56.27
2019-03-28T17:55:57.179Z,56.33
2019-03-28T17:58:27.275Z,57.08
2019-03-28T18:00:56.903Z,57.32
2019-03-28T18:03:31.471Z,57.79
2019-03-28T18:06:00.431Z,57.38
2019-03-28T18:08:30.447Z,58.53
2019-03-28T18:11:00.499Z,58.88
2019-03-28T18:13:39.647Z,59.86
2019-03-28T18:16:11.988Z,60.34
2019-03-28T18:18:41.650Z,61.68
2019-03-28T18:21:11.299Z,62.67
2019-03-28T18:23:40.992Z,63.28
2019-03-28T18:26:10.601Z,62.75
2019-03-28T18:28:40.176Z,61.21
2019-03-28T18:31:09.914Z,60.82
2019-03-28T18:33:39.527Z,61.75
2019-03-28T18:36:12.856Z,61.79
2019-03-28T18:38:43.259Z,62.15
2019-03-28T18:41:13.268Z,61.90
2019-03-28T18:43:43.342Z,62.22
2019-03-28T18:46:15.941Z,63.24
2019-03-28T18:48:45.934Z,63.85
2019-03-28T18:51:17.666Z,64.03
2019-03-28T18:53:47.414Z,64.22
2019-03-28T18:56:18.343Z,64.56
2019-03-28T18:58:48.510Z,64.00
2019-03-28T19:01:18.136Z,64.68
2019-03-28T19:03:47.884Z,64.54
2019-03-28T19:06:18.562Z,64.82
2019-03-28T19:08:49.618Z,65.15
2019-03-28T19:11:19.300Z,65.31
2019-03-28T19:13:49.056Z,65.50
2019-03-28T19:16:21.867Z,65.08
2019-03-28T19:18:51.940Z,65.58
2019-03-28T19:21:21.776Z,65.81
2019-03-28T19:23:51.465Z,66.36
2019-03-28T19:26:21.255Z,65.85
2019-03-28T19:29:03.687Z,66.18
2019-03-28T19:31:33.448Z,66.16
2019-03-28T19:34:04.160Z,66.21
2019-03-28T19:36:33.788Z,66.66
2019-03-28T19:39:04.465Z,66.50
2019-03-28T19:41:34.084Z,66.88
2019-03-28T19:44:03.891Z,66.87
2019-03-28T19:46:33.530Z,66.92
2019-03-28T19:49:03.165Z,66.72
2019-03-28T19:51:33.334Z,66.46
2019-03-28T19:54:03.609Z,67.53
2019-03-28T19:56:33.263Z,67.15
2019-03-28T19:59:02.925Z,67.86
2019-03-28T20:01:32.641Z,67.83
2019-03-28T20:04:02.309Z,68.43
2019-03-28T20:06:31.887Z,68.23
2019-03-28T20:09:15.354Z,68.55
2019-03-28T20:11:33.133Z,68.47
2019-03-28T20:14:02.786Z,68.26
2019-03-28T20:16:32.341Z,69.43
2019-03-28T20:19:03.538Z,70.45
2019-03-28T20:21:33.160Z,71.23
2019-03-28T20:24:02.786Z,71.52
2019-03-28T20:26:32.370Z,72.73
2019-03-28T20:29:02.374Z,72.64
2019-03-28T20:31:32.062Z,72.91
2019-03-28T20:34:01.852Z,73.37
2019-03-28T20:36:38.594Z,74.11
2019-03-28T20:39:07.445Z,74.63
2019-03-28T20:41:37.387Z,74.43
2019-03-28T20:44:11.506Z,75.83
2019-03-28T20:46:40.855Z,75.62
2019-03-28T20:49:11.970Z,76.12
2019-03-28T20:51:41.803Z,76.10
2019-03-28T20:54:13.026Z,76.42
2019-03-28T20:56:43.256Z,76.61
2019-03-28T20:59:15.213Z,77.04
2019-03-28T21:01:45.294Z,77.18
2019-03-28T21:04:30.315Z,77.60
2019-03-28T21:06:49.677Z,77.98
2019-03-28T21:09:19.319Z,78.41
2019-03-28T21:11:49.955Z,78.91
2019-03-28T21:14:19.581Z,78.90
2019-03-28T21:16:49.243Z,78.83
2019-03-28T21:19:19.206Z,78.68
2019-03-28T21:21:48.844Z,79.93
2019-03-28T21:24:18.653Z,79.75
2019-03-28T21:26:48.311Z,79.75
2019-03-28T21:29:18.143Z,80.25
2019-03-28T21:31:50.168Z,80.62
2019-03-28T21:34:19.182Z,80.69
2019-03-28T21:36:48.789Z,80.64
2019-03-28T21:39:18.602Z,80.79
2019-03-28T21:41:49.734Z,80.94
2019-03-28T21:44:19.389Z,81.36
2019-03-28T21:46:49.351Z,81.17
2019-03-28T21:49:19.475Z,80.19
2019-03-28T21:51:49.411Z,81.36
2019-03-28T21:54:19.050Z,81.54
2019-03-28T21:56:49.857Z,81.87
2019-03-28T21:59:20.945Z,81.73
2019-03-28T22:01:52.472Z,81.44
2019-03-28T22:04:22.277Z,81.79
2019-03-28T22:06:54.232Z,81.89
2019-03-28T22:09:24.246Z,81.06
2019-03-28T22:11:55.701Z,81.56
2019-03-28T22:14:25.463Z,82.13
2019-03-28T22:16:55.149Z,82.80
2019-03-28T22:19:25.907Z,82.95
2019-03-28T22:21:56.608Z,82.83
2019-03-28T22:24:26.345Z,82.50
2019-03-28T22:26:56.292Z,83.09
2019-03-28T22:29:26.171Z,83.56
2019-03-28T22:31:57.478Z,83.03
2019-03-28T22:34:28.373Z,83.48
2019-03-28T22:36:59.961Z,83.40
2019-03-28T22:39:29.516Z,83.85
2019-03-28T22:42:02.304Z,84.43
2019-03-28T22:44:33.889Z,84.22
2019-03-28T22:47:03.355Z,83.65
2019-03-28T22:49:33.183Z,83.47
2019-03-28T22:52:03.146Z,84.06
2019-03-28T22:54:32.745Z,84.37
2019-03-28T22:57:02.479Z,84.66
2019-03-28T22:59:32.574Z,84.66
2019-03-28T23:02:02.902Z,84.30
2019-03-28T23:04:32.669Z,83.12
2019-03-28T23:07:10.854Z,84.96
2019-03-28T23:09:34.864Z,84.70
2019-03-28T23:12:05.480Z,86.80
2019-03-28T23:14:35.120Z,85.72
2019-03-28T23:17:04.721Z,85.35
2019-03-28T23:19:34.436Z,86.02
2019-03-28T23:22:04.248Z,85.67
2019-03-28T23:24:34.201Z,85.71
2019-03-28T23:27:03.866Z,85.76
2019-03-28T23:29:33.459Z,85.13
2019-03-28T23:32:03.189Z,85.43
2019-03-28T23:34:33.731Z,84.87
2019-03-28T23:37:03.625Z,85.79
2019-03-28T23:39:37.180Z,85.73
2019-03-28T23:42:08.737Z,85.61
2019-03-28T23:44:39.497Z,85.97
2019-03-28T23:47:09.075Z,85.12
2019-03-28T23:49:38.931Z,86.54
2019-03-28T23:52:12.713Z,85.93
2019-03-28T23:54:42.361Z,85.45
2019-03-28T23:57:19.561Z,85.14
2019-03-28T23:59:51.554Z,85.38
